createdAt,value
2023-01-17T00:02:01.688Z,7.07
2023-01-17T00:06:27.385Z,9.10
2023-01-17T00:10:29.149Z,7.68
2023-01-17T00:14:30.714Z,8.35
2023-01-17T00:18:32.427Z,6.82
2023-01-17T00:22:52.518Z,7.25
2023-01-17T00:27:12.357Z,7.90
2023-01-17T00:31:15.723Z,7.43
2023-01-17T00:35:17.781Z,7.45
2023-01-17T00:39:19.197Z,8.93
2023-01-17T00:43:41.560Z,7.35
2023-01-17T00:48:05.123Z,7.15
2023-01-17T00:52:25.272Z,7.65
2023-01-17T00:56:45.394Z,8.75
2023-01-17T01:01:05.503Z,6.97
2023-01-17T01:05:26.775Z,9.88
2023-01-17T01:09:47.173Z,10.40
2023-01-17T01:14:07.327Z,6.35
2023-01-17T01:18:30.358Z,7.13
2023-01-17T01:22:50.122Z,6.03
2023-01-17T01:27:10.152Z,6.70
2023-01-17T01:31:30.132Z,5.15
2023-01-17T01:35:31.844Z,4.55
2023-01-17T01:39:33.392Z,3.50
2023-01-17T01:43:48.506Z,4.07
2023-01-17T01:47:54.028Z,3.10
2023-01-17T01:51:59.490Z,4.10
2023-01-17T01:56:01.911Z,4.38
2023-01-17T02:00:17.391Z,4.00
2023-01-17T02:04:20.669Z,5.05
2023-01-17T02:08:23.879Z,2.80
2023-01-17T02:12:25.852Z,4.10
2023-01-17T02:16:53.297Z,3.40
2023-01-17T02:21:12.856Z,3.72
2023-01-17T02:25:52.030Z,2.97
2023-01-17T02:30:13.332Z,2.75
2023-01-17T02:34:20.980Z,2.03
2023-01-17T02:38:50.685Z,2.17
2023-01-17T02:42:59.692Z,2.65
2023-01-17T02:47:01.221Z,1.77
2023-01-17T02:51:14.975Z,2.75
2023-01-17T02:55:43.763Z,2.30
2023-01-17T03:00:18.904Z,1.45
2023-01-17T03:04:28.056Z,1.08
2023-01-17T03:08:30.641Z,0.40
2023-01-17T03:12:35.315Z,1.48
2023-01-17T03:16:37.039Z,0.68
2023-01-17T03:20:38.551Z,0.65
2023-01-17T03:24:40.048Z,1.20
2023-01-17T03:28:41.694Z,0.20
2023-01-17T03:32:43.416Z,0.55
2023-01-17T03:36:44.931Z,0.95
2023-01-17T03:40:46.464Z,1.77
2023-01-17T03:44:47.919Z,0.30
2023-01-17T03:48:49.526Z,1.08
2023-01-17T03:52:51.203Z,0.73
2023-01-17T03:56:52.747Z,0.17
2023-01-17T04:00:54.499Z,0.47
2023-01-17T04:04:56.129Z,0.90
2023-01-17T04:08:57.605Z,0.70
2023-01-17T04:12:59.146Z,1.27
2023-01-17T04:17:01.280Z,1.85
2023-01-17T04:21:02.868Z,1.05
2023-01-17T04:25:04.878Z,1.17
2023-01-17T04:29:06.409Z,1.15
2023-01-17T04:33:07.967Z,1.05
2023-01-17T04:37:09.945Z,1.67
2023-01-17T04:41:11.554Z,1.27
2023-01-17T04:45:13.829Z,2.60
2023-01-17T04:49:15.470Z,1.55
2023-01-17T04:53:17.076Z,1.08
2023-01-17T04:57:19.574Z,2.45
2023-01-17T05:01:21.194Z,1.63
2023-01-17T05:05:22.746Z,1.90
2023-01-17T05:09:24.316Z,1.55
2023-01-17T05:13:25.873Z,1.30
2023-01-17T05:17:27.396Z,3.30
2023-01-17T05:21:30.460Z,2.20
2023-01-17T05:25:33.073Z,2.45
2023-01-17T05:29:34.617Z,1.60
2023-01-17T05:33:36.213Z,2.17
2023-01-17T05:37:37.668Z,2.10
2023-01-17T05:41:39.330Z,1.85
2023-01-17T05:45:40.866Z,2.17
2023-01-17T05:49:45.101Z,3.35
2023-01-17T05:53:47.422Z,1.48
2023-01-17T05:57:49.671Z,2.95
2023-01-17T06:01:51.205Z,1.23
2023-01-17T06:05:52.726Z,0.88
2023-01-17T06:09:54.302Z,1.90
2023-01-17T06:13:55.796Z,1.52
2023-01-17T06:17:57.627Z,1.83
2023-01-17T06:21:59.108Z,2.20
2023-01-17T06:26:03.556Z,1.50
2023-01-17T06:30:06.124Z,2.00
2023-01-17T06:40:07.591Z,2.05
2023-01-17T06:44:42.835Z,2.88
2023-01-17T06:48:44.584Z,2.80
2023-01-17T06:52:57.595Z,2.78
2023-01-17T06:56:59.210Z,2.60
2023-01-17T07:01:35.593Z,3.15
2023-01-17T07:06:28.756Z,2.90
2023-01-17T07:10:30.404Z,2.45
2023-01-17T07:14:31.934Z,4.88
2023-01-17T07:18:34.230Z,2.35
2023-01-17T07:28:49.241Z,3.63
2023-01-17T07:32:53.370Z,2.28
2023-01-17T07:37:26.388Z,1.60
2023-01-17T07:41:30.497Z,1.92
2023-01-17T07:46:05.340Z,2.10
2023-01-17T07:50:57.345Z,2.20
2023-01-17T07:54:58.946Z,3.53
2023-01-17T07:59:01.461Z,1.77
2023-01-17T08:03:54.774Z,2.63
2023-01-17T08:08:46.357Z,2.88
2023-01-17T08:13:38.647Z,2.15
2023-01-17T08:17:47.408Z,3.13
2023-01-17T08:21:48.827Z,2.25
2023-01-17T08:25:50.543Z,3.00
2023-01-17T08:29:52.073Z,2.65
2023-01-17T08:33:53.768Z,3.92
2023-01-17T08:38:29.111Z,2.42
2023-01-17T08:42:30.810Z,4.00
2023-01-17T08:47:06.280Z,4.60
2023-01-17T08:51:58.531Z,4.10
2023-01-17T08:56:01.868Z,3.03
2023-01-17T09:00:05.193Z,3.05
2023-01-17T09:04:08.819Z,4.35
2023-01-17T09:08:10.415Z,2.92
2023-01-17T09:12:12.220Z,5.93
2023-01-17T09:16:13.814Z,3.67
2023-01-17T09:20:15.764Z,1.88
2023-01-17T09:24:17.261Z,3.38
2023-01-17T09:29:09.551Z,1.65
2023-01-17T09:33:11.419Z,4.25
2023-01-17T09:37:13.282Z,3.45
2023-01-17T09:41:28.736Z,3.00
2023-01-17T09:45:32.468Z,2.78
2023-01-17T09:49:45.591Z,2.67
2023-01-17T09:53:47.626Z,2.45
2023-01-17T09:57:58.508Z,2.08
2023-01-17T10:02:44.616Z,3.40
2023-01-17T10:06:46.045Z,2.63
2023-01-17T10:10:54.304Z,2.45
2023-01-17T10:21:14.431Z,2.83
2023-01-17T10:25:50.743Z,2.72
2023-01-17T10:29:52.270Z,2.00
2023-01-17T10:39:58.071Z,3.13
2023-01-17T10:44:06.174Z,2.78
2023-01-17T10:48:39.028Z,3.80
2023-01-17T10:52:52.750Z,3.78
2023-01-17T10:56:54.785Z,5.75
2023-01-17T11:01:13.882Z,2.95
2023-01-17T11:05:28.307Z,3.33
2023-01-17T11:09:42.173Z,2.63
2023-01-17T11:13:47.644Z,2.80
2023-01-17T11:18:00.367Z,2.88
2023-01-17T11:22:04.833Z,2.55
2023-01-17T11:26:57.055Z,4.88
2023-01-17T11:31:48.202Z,3.28
2023-01-17T11:35:50.009Z,3.20
2023-01-17T11:39:52.076Z,2.85
2023-01-17T11:44:43.343Z,2.50
2023-01-17T11:49:35.475Z,1.55
2023-01-17T11:53:39.888Z,1.90
2023-01-17T11:58:14.444Z,3.25
2023-01-17T12:03:07.526Z,2.53
2023-01-17T12:07:59.393Z,2.17
2023-01-17T12:12:31.975Z,3.67
2023-01-17T12:16:54.285Z,2.88
2023-01-17T12:21:40.467Z,4.25
2023-01-17T12:25:59.129Z,4.25
2023-01-17T12:30:34.330Z,6.50
2023-01-17T12:35:08.736Z,3.88
2023-01-17T12:39:37.025Z,3.65
2023-01-17T12:43:43.920Z,2.50
2023-01-17T12:47:54.272Z,4.35
2023-01-17T12:52:04.851Z,2.88
2023-01-17T12:56:16.158Z,3.83
2023-01-17T13:00:23.076Z,2.50
2023-01-17T13:04:57.996Z,3.22
2023-01-17T13:09:03.256Z,2.97
2023-01-17T13:13:20.012Z,5.05
2023-01-17T13:17:35.406Z,3.80
2023-01-17T13:21:37.438Z,2.30
2023-01-17T13:25:48.735Z,3.13
2023-01-17T13:30:03.354Z,2.08
2023-01-17T13:34:14.005Z,2.28
2023-01-17T13:38:30.328Z,2.88
2023-01-17T13:42:47.054Z,4.78
2023-01-17T13:47:01.275Z,3.63
2023-01-17T13:51:07.956Z,2.70
2023-01-17T13:55:44.606Z,2.90
2023-01-17T13:59:46.118Z,2.60
2023-01-17T14:03:51.313Z,3.78
2023-01-17T14:08:00.058Z,2.95
2023-01-17T14:12:10.770Z,2.58
2023-01-17T14:16:22.003Z,3.55
2023-01-17T14:20:27.249Z,4.55
2023-01-17T14:24:28.824Z,3.78
2023-01-17T14:29:20.618Z,3.60
2023-01-17T14:34:12.606Z,3.78
2023-01-17T14:38:27.257Z,3.03
2023-01-17T14:42:31.297Z,3.35
2023-01-17T14:46:34.729Z,4.13
2023-01-17T14:50:38.025Z,4.20
2023-01-17T14:54:47.590Z,4.20
2023-01-17T14:59:21.002Z,2.97
2023-01-17T15:03:54.363Z,3.45
2023-01-17T15:07:58.119Z,3.92
2023-01-17T15:12:02.385Z,4.93
2023-01-17T15:16:41.622Z,4.20
2023-01-17T15:21:33.291Z,2.92
2023-01-17T15:25:35.108Z,4.25
2023-01-17T15:29:36.750Z,5.00
2023-01-17T15:34:05.316Z,5.43
2023-01-17T15:44:46.693Z,6.25
2023-01-17T15:48:51.483Z,5.20
2023-01-17T15:53:05.219Z,9.20
2023-01-17T15:57:27.042Z,5.28
2023-01-17T16:01:28.677Z,5.95
2023-01-17T16:05:34.584Z,7.20
2023-01-17T16:09:43.613Z,7.07
2023-01-17T16:13:47.224Z,6.45
2023-01-17T16:17:52.479Z,7.78
2023-01-17T16:21:56.904Z,10.15
2023-01-17T16:25:58.456Z,7.15
2023-01-17T16:29:59.935Z,6.90
2023-01-17T16:34:01.791Z,6.97
2023-01-17T16:38:06.111Z,9.82
2023-01-17T16:42:11.704Z,8.40
2023-01-17T16:46:13.607Z,11.05
2023-01-17T16:50:17.457Z,9.77
2023-01-17T16:54:19.093Z,9.27
2023-01-17T16:58:20.636Z,10.35
2023-01-17T17:02:22.877Z,10.30
2023-01-17T17:06:24.392Z,8.95
2023-01-17T17:10:27.639Z,8.35
2023-01-17T17:14:29.311Z,10.02
2023-01-17T17:18:31.000Z,10.70
2023-01-17T17:22:32.947Z,15.35
2023-01-17T17:26:36.477Z,13.95
2023-01-17T17:30:38.011Z,11.68
2023-01-17T17:34:39.705Z,9.93
2023-01-17T17:38:53.580Z,12.10
2023-01-17T17:42:58.141Z,13.07
2023-01-17T17:47:00.036Z,10.15
2023-01-17T17:51:02.871Z,16.95
2023-01-17T17:55:04.727Z,10.82
2023-01-17T17:59:08.207Z,12.18
2023-01-17T18:03:09.721Z,11.25
2023-01-17T18:07:11.254Z,11.75
2023-01-17T18:11:19.821Z,12.27
2023-01-17T18:15:21.418Z,12.73
2023-01-17T18:19:25.792Z,14.02
2023-01-17T18:23:27.381Z,10.93
2023-01-17T18:27:28.871Z,18.10
2023-01-17T18:31:31.132Z,12.38
2023-01-17T18:35:32.651Z,11.15
2023-01-17T18:39:34.340Z,16.33
2023-01-17T18:43:36.050Z,12.90
2023-01-17T18:47:38.710Z,13.88
2023-01-17T18:51:40.468Z,16.98
2023-01-17T18:55:41.983Z,13.88
2023-01-17T18:59:44.305Z,13.15
2023-01-17T19:03:48.767Z,13.88
2023-01-17T19:07:50.367Z,15.70
2023-01-17T19:11:51.958Z,15.68
2023-01-17T19:15:53.522Z,14.13
2023-01-17T19:19:57.073Z,13.65
2023-01-17T19:23:59.121Z,14.32
2023-01-17T19:28:01.577Z,18.23
2023-01-17T19:32:03.299Z,13.95
2023-01-17T19:36:08.970Z,15.50
2023-01-17T19:40:11.621Z,12.77
2023-01-17T19:44:14.981Z,14.50
2023-01-17T19:48:16.800Z,16.55
2023-01-17T19:52:18.378Z,14.23
2023-01-17T19:56:24.401Z,15.25
2023-01-17T20:00:30.207Z,16.88
2023-01-17T20:04:32.199Z,15.35
2023-01-17T20:08:35.052Z,30.00
2023-01-17T20:12:36.671Z,23.45
2023-01-17T20:16:38.445Z,16.15
2023-01-17T20:20:56.368Z,15.27
2023-01-17T20:24:59.154Z,17.13
2023-01-17T20:29:04.476Z,14.57
2023-01-17T20:33:06.016Z,15.20
2023-01-17T20:37:08.423Z,14.98
2023-01-17T20:41:12.017Z,12.32
2023-01-17T20:45:13.654Z,12.13
2023-01-17T20:49:18.858Z,12.82
2023-01-17T20:53:21.926Z,17.30
2023-01-17T20:57:23.493Z,12.07
2023-01-17T21:01:25.246Z,12.90
2023-01-17T21:05:27.613Z,15.18
2023-01-17T21:10:19.533Z,13.63
2023-01-17T21:14:24.619Z,13.32
2023-01-17T21:18:27.939Z,12.48
2023-01-17T21:23:20.262Z,16.80
2023-01-17T21:27:21.988Z,12.95
2023-01-17T21:31:30.180Z,12.02
2023-01-17T21:36:22.965Z,12.35
2023-01-17T21:40:24.592Z,10.15
2023-01-17T21:44:26.656Z,11.80
2023-01-17T21:48:28.265Z,12.77
2023-01-17T21:52:31.555Z,11.52
2023-01-17T21:56:51.921Z,13.38
2023-01-17T22:07:00.631Z,10.00
2023-01-17T22:11:13.206Z,14.93
2023-01-17T22:19:42.837Z,11.55
2023-01-17T22:23:46.591Z,12.80
2023-01-17T22:28:13.265Z,11.80
2023-01-17T22:32:36.800Z,11.75
2023-01-17T22:36:38.691Z,17.52
2023-01-17T22:41:16.257Z,12.25
2023-01-17T22:45:19.098Z,13.90
2023-01-17T22:49:23.394Z,13.57
2023-01-17T22:54:15.291Z,13.65
2023-01-17T22:59:11.714Z,11.63
2023-01-17T23:03:13.738Z,11.35
2023-01-17T23:07:15.809Z,15.50
2023-01-17T23:11:41.853Z,12.65
2023-01-17T23:16:02.353Z,9.85
2023-01-17T23:20:06.427Z,12.57
2023-01-17T23:24:08.504Z,15.07
2023-01-17T23:28:20.522Z,14.02
2023-01-17T23:32:22.609Z,13.90
2023-01-17T23:36:24.262Z,15.77
2023-01-17T23:40:25.951Z,15.18
2023-01-17T23:44:31.564Z,15.07
2023-01-17T23:48:33.117Z,12.27
2023-01-17T23:52:34.760Z,16.50
2023-01-17T23:56:36.333Z,13.43
